Time;durP1;ratioP1;P1;durP2;ratioP2;P2;SDS_P1;SDS_P2;PMS_P1;PMS_P2;Temp;Humidity;BMP_temperature;BMP_pressure;BME280_temperature;BME280_humidity;BME280_pressure;Samples;Min_cycle;Max_cycle;Signal;HPM_P1;HPM_P2
2023/09/03 00:02:13;;;;;;;4.45;4.05;;;;;;;;;;6105575;23;20116;-83
2023/09/03 00:04:40;;;;;;;5.05;4.28;;;;;;;;;;6105562;23;20125;-83
2023/09/03 00:07:06;;;;;;;6.43;5.10;;;;;;;;;;6105951;23;20116;-83
2023/09/03 00:09:33;;;;;;;6.13;5.53;;;;;;;;;;6105772;23;20047;-83
2023/09/03 00:11:59;;;;;;;9.68;5.20;;;;;;;;;;6105578;23;20109;-83
2023/09/03 00:14:25;;;;;;;6.28;4.90;;;;;;;;;;6105882;23;20068;-83
2023/09/03 00:16:52;;;;;;;6.05;5.28;;;;;;;;;;6106111;23;20017;-83
2023/09/03 00:19:18;;;;;;;6.22;4.75;;;;;;;;;;6106241;23;20443;-83
2023/09/03 00:21:44;;;;;;;4.95;4.25;;;;;;;;;;6130023;23;20017;-83
2023/09/03 00:24:10;;;;;;;4.20;3.88;;;;;;;;;;6105499;23;20049;-84
2023/09/03 00:26:36;;;;;;;9.55;5.57;;;;;;;;;;6129951;23;20412;-83
2023/09/03 00:29:02;;;;;;;7.50;6.55;;;;;;;;;;6107874;23;20101;-83
2023/09/03 00:31:28;;;;;;;4.88;4.40;;;;;;;;;;6114490;23;20383;-82
2023/09/03 00:33:54;;;;;;;3.70;3.20;;;;;;;;;;6114575;23;20072;-83
2023/09/03 00:36:20;;;;;;;1.85;1.75;;;;;;;;;;6112504;23;20053;-86
2023/09/03 00:38:50;;;;;;;2.83;2.53;;;;;;;;;;6106666;23;20020;-88
2023/09/03 00:41:16;;;;;;;5.47;4.30;;;;;;;;;;6111881;23;20052;-89
2023/09/03 00:43:42;;;;;;;4.75;3.25;;;;;;;;;;6113224;23;20025;-84
2023/09/03 00:46:09;;;;;;;6.18;3.58;;;;;;;;;;6163927;23;20013;-90
2023/09/03 00:48:35;;;;;;;3.05;2.70;;;;;;;;;;6161338;23;20049;-85
2023/09/03 00:51:06;;;;;;;3.08;2.88;;;;;;;;;;6132777;23;20013;-92
2023/09/03 00:53:34;;;;;;;4.47;3.97;;;;;;;;;;6138431;23;20017;-83
2023/09/03 00:56:00;;;;;;;4.60;4.10;;;;;;;;;;6142762;23;20358;-83
2023/09/03 00:58:27;;;;;;;4.05;3.38;;;12.60;1.00;;;;;;6167607;23;20072;-87
2023/09/03 01:00:53;;;;;;;4.32;3.90;;;;;;;;;;6108152;23;20021;-94
2023/09/03 01:03:20;;;;;;;5.00;4.20;;;;;;;;;;6129615;23;20049;-83
2023/09/03 01:05:46;;;;;;;5.25;3.85;;;;;;;;;;6105446;23;20431;-84
2023/09/03 01:08:12;;;;;;;5.20;4.72;;;;;;;;;;6129476;23;20105;-83
2023/09/03 01:11:07;;;;;;;5.05;4.57;;;13.00;1.00;;;;;;6105349;23;20079;-83
2023/09/03 01:13:45;;;;;;;5.55;4.47;;;12.80;1.00;;;;;;6080168;23;20068;-83
2023/09/03 01:16:21;;;;;;;4.80;4.40;;;;;;;;;;6104884;23;20029;-82
2023/09/03 01:18:47;;;;;;;5.45;4.35;;;;;;;;;;6104894;23;20013;-82
2023/09/03 01:21:19;;;;;;;5.57;4.80;;;;;;;;;;6105176;23;20041;-83
2023/09/03 01:24:02;;;;;;;6.88;5.35;;;12.70;1.00;;;;;;6104657;23;20017;-83
2023/09/03 01:27:04;;;;;;;6.55;5.60;;;;;;;;;;6129068;23;20021;-83
2023/09/03 01:29:30;;;;;;;7.70;6.28;;;12.90;1.00;;;;;;6093910;23;20109;-82
2023/09/03 01:31:57;;;;;;;8.38;7.30;;;;;;;;;;6075219;23;20022;-82
2023/09/03 01:34:23;;;;;;;10.20;8.63;;;;;;;;;;6104890;23;20017;-82
2023/09/03 01:36:50;;;;;;;12.93;7.60;;;13.10;1.00;;;;;;6129027;23;20014;-82
2023/09/03 01:39:17;;;;;;;9.93;7.88;;;;;;;;;;6129497;23;20057;-83
2023/09/03 01:41:43;;;;;;;8.80;7.50;;;;;;;;;;6129244;23;20384;-82
2023/09/03 01:44:09;;;;;;;8.27;6.97;;;;;;;;;;6104903;23;20204;-83
2023/09/03 01:46:37;;;;;;;13.18;8.13;;;;;;;;;;6129381;23;20017;-83
2023/09/03 01:49:35;;;;;;;9.43;8.30;;;13.20;1.00;;;;;;6105606;23;20019;-83
2023/09/03 01:52:04;;;;;;;9.18;8.23;;;;;;;;;;6054121;23;20406;-83
2023/09/03 01:54:31;;;;;;;10.38;8.45;;;;;;;;;;6129075;23;20017;-83
2023/09/03 01:57:27;;;;;;;9.57;7.88;;;;;;;;;;6105084;23;20028;-84
2023/09/03 01:59:54;;;;;;;8.35;7.53;;;;;;;;;;6092358;23;20017;-84
2023/09/03 02:02:21;;;;;;;7.57;6.88;;;;;;;;;;6084926;23;20042;-84
2023/09/03 02:04:47;;;;;;;10.15;8.00;;;;;;;;;;6077017;23;20454;-84
2023/09/03 02:07:13;;;;;;;9.43;8.02;;;;;;;;;;6076356;23;20018;-84
2023/09/03 02:09:40;;;;;;;9.82;7.47;;;;;;;;;;6100110;23;20447;-84
2023/09/03 02:12:06;;;;;;;9.63;8.63;;;;;;;;;;6099924;23;20026;-83
2023/09/03 02:14:32;;;;;;;9.18;8.20;;;;;;;;;;6075575;23;20014;-84
2023/09/03 02:16:59;;;;;;;9.48;8.50;;;;;;;;;;6075991;23;20018;-84
2023/09/03 02:19:25;;;;;;;9.40;8.27;;;;;;;;;;6075547;23;20452;-84
2023/09/03 02:21:51;;;;;;;9.65;8.63;;;;;;;;;;6075752;23;20025;-83
2023/09/03 02:24:17;;;;;;;10.90;8.18;;;;;;;;;;6075200;23;20017;-84
2023/09/03 02:26:44;;;;;;;21.00;8.93;;;;;;;;;;6075265;23;20050;-84
2023/09/03 02:29:10;;;;;;;12.45;9.00;;;;;;;;;;6075751;23;20049;-84
2023/09/03 02:31:37;;;;;;;10.82;8.95;;;;;;;;;;6075419;23;20484;-84
2023/09/03 02:34:04;;;;;;;10.43;9.18;;;;;;;;;;6075877;23;20017;-84
2023/09/03 02:36:31;;;;;;;12.70;9.02;;;;;;;;;;6075313;23;20359;-84
2023/09/03 02:39:05;;;;;;;11.98;9.40;;;;;;;;;;6051983;23;20013;-84
2023/09/03 02:41:31;;;;;;;10.13;8.57;;;;;;;;;;6099702;23;20022;-84
2023/09/03 02:43:58;;;;;;;10.15;9.15;;;;;;;;;;6076130;23;20065;-83
2023/09/03 02:46:24;;;;;;;9.85;8.55;;;;;;;;;;6099444;23;20022;-84
2023/09/03 02:48:51;;;;;;;10.18;8.98;;;13.00;1.00;;;;;;6075066;23;20092;-85
2023/09/03 02:51:18;;;;;;;8.73;7.68;;;;;;;;;;6075660;23;20022;-85
2023/09/03 02:53:45;;;;;;;8.15;7.35;;;;;;;;;;6075017;23;20096;-84
2023/09/03 02:56:12;;;;;;;8.40;7.60;;;12.90;1.00;;;;;;6054211;23;20018;-84
2023/09/03 02:58:39;;;;;;;8.20;7.40;;;;;;;;;;6081289;23;20022;-85
2023/09/03 03:01:14;;;;;;;7.13;6.43;;;;;;;;;;6104939;23;20014;-85
2023/09/03 03:03:44;;;;;;;6.03;5.53;;;12.70;1.00;;;;;;6081347;23;20091;-84
2023/09/03 03:06:10;;;;;;;5.93;5.35;;;;;;;;;;6057008;23;20036;-84
2023/09/03 03:08:37;;;;;;;6.28;5.65;;;;;;;;;;6080024;23;20106;-84
2023/09/03 03:11:09;;;;;;;5.00;4.60;;;;;;;;;;6079193;23;20018;-84
2023/09/03 03:13:35;;;;;;;4.53;4.13;;;;;;;;;;6079059;23;20033;-84
2023/09/03 03:16:08;;;;;;;3.58;3.33;;;;;;;;;;6078164;23;20013;-83
2023/09/03 03:18:38;;;;;;;3.90;3.60;;;;;;;;;;6077879;23;20439;-84
2023/09/03 03:21:14;;;;;;;4.53;4.13;;;12.50;1.00;;;;;;6100999;23;20020;-84
2023/09/03 03:23:41;;;;;;;4.95;4.55;;;;;;;;;;6100157;23;20101;-85
2023/09/03 03:26:07;;;;;;;4.90;4.50;;;;;;;;;;6053806;23;20073;-85
2023/09/03 03:28:34;;;;;;;11.10;4.82;;;12.30;1.00;;;;;;6081275;23;20101;-85
2023/09/03 03:31:17;;;;;;;5.03;4.63;;;12.50;1.00;;;;;;6103925;23;20029;-84
2023/09/03 03:33:44;;;;;;;5.65;5.15;;;;;;;;;;6079239;23;20588;-84
2023/09/03 03:36:14;;;;;;;6.22;5.72;;;;;;;;;;6100173;23;20065;-84
2023/09/03 03:38:40;;;;;;;8.00;6.32;;;;;;;;;;6100277;23;20018;-85
2023/09/03 03:41:11;;;;;;;6.40;5.80;;;;;;;;;;6053336;23;20096;-86
2023/09/03 03:43:38;;;;;;;5.85;5.35;;;12.20;1.00;;;;;;6078063;23;20092;-84
2023/09/03 03:46:08;;;;;;;6.95;6.28;;;;;;;;;;6077609;23;20073;-84
2023/09/03 03:48:34;;;;;;;7.18;6.45;;;;;;;;;;6078394;23;20097;-84
2023/09/03 03:51:00;;;;;;;7.95;7.15;;;;;;;;;;6077337;23;20018;-84
2023/09/03 03:53:26;;;;;;;10.57;6.60;;;;;;;;;;6076442;23;20462;-86
2023/09/03 03:56:04;;;;;;;6.13;5.38;;;12.40;1.00;;;;;;6075888;23;20085;-85
2023/09/03 03:58:31;;;;;;;5.10;4.60;;;12.40;1.00;;;;;;6074699;23;20017;-84
2023/09/03 04:00:57;;;;;;;6.75;4.65;;;;;;;;;;6055230;23;20463;-84
2023/09/03 04:03:24;;;;;;;4.60;4.22;;;;;;;;;;6128450;23;20025;-83
2023/09/03 04:05:57;;;;;;;5.18;4.63;;;;;;;;;;6128020;23;20020;-83
2023/09/03 04:08:23;;;;;;;5.40;4.90;;;;;;;;;;6128130;23;20024;-84
2023/09/03 04:10:59;;;;;;;4.72;3.75;;;;;;;;;;6128162;23;20071;-84
2023/09/03 04:13:26;;;;;;;4.10;3.70;;;;;;;;;;6104315;23;20052;-83
2023/09/03 04:15:52;;;;;;;3.92;3.63;;;;;;;;;;6128539;23;20021;-83
2023/09/03 04:18:18;;;;;;;5.65;4.78;;;;;;;;;;6128126;23;20029;-83
2023/09/03 04:20:44;;;;;;;6.25;5.60;;;;;;;;;;6128134;23;20100;-83
2023/09/03 04:23:10;;;;;;;6.05;5.43;;;;;;;;;;6127871;23;20021;-82
2023/09/03 04:25:37;;;;;;;9.70;7.03;;;;;;;;;;6127779;23;20364;-83
2023/09/03 04:28:03;;;;;;;8.13;7.25;;;;;;;;;;6127884;23;20440;-84
2023/09/03 04:30:30;;;;;;;9.35;7.15;;;;;;;;;;6104747;23;20020;-84
2023/09/03 04:32:56;;;;;;;9.75;6.53;;;;;;;;;;6105947;23;20477;-83
2023/09/03 04:35:22;;;;;;;6.30;5.68;;;;;;;;;;6106184;23;20014;-84
2023/09/03 04:37:50;;;;;;;7.80;7.00;;;;;;;;;;6105420;23;20454;-84
2023/09/03 04:40:16;;;;;;;7.40;6.63;;;;;;;;;;6106066;23;20022;-84
2023/09/03 04:42:42;;;;;;;9.00;7.03;;;;;;;;;;6105414;23;20021;-83
2023/09/03 04:45:08;;;;;;;10.77;7.03;;;12.20;8.70;;;;;;6105546;23;20029;-84
2023/09/03 04:47:34;;;;;;;7.30;6.43;;;;;;;;;;6130961;23;20017;-86
2023/09/03 04:50:00;;;;;;;7.32;6.03;;;;;;;;;;6106390;23;20018;-87
2023/09/03 04:52:26;;;;;;;8.90;8.00;;;;;;;;;;6106163;23;20104;-83
2023/09/03 04:54:54;;;;;;;7.97;7.18;;;;;;;;;;6105733;23;20025;-88
2023/09/03 04:57:20;;;;;;;7.82;7.03;;;;;;;;;;6130702;23;20057;-86
2023/09/03 04:59:47;;;;;;;9.07;7.22;;;;;;;;;;6132432;23;20017;-88
2023/09/03 05:02:13;;;;;;;10.05;7.55;;;;;;;;;;6128145;23;20025;-85
2023/09/03 05:04:39;;;;;;;8.93;7.32;;;;;;;;;;6102311;23;20022;-89
2023/09/03 05:07:06;;;;;;;8.13;7.28;;;;;;;;;;6102235;23;20022;-83
2023/09/03 05:09:32;;;;;;;11.05;7.80;;;;;;;;;;6102515;23;20028;-88
2023/09/03 05:11:58;;;;;;;12.38;7.82;;;;;;;;;;6126077;23;20022;-88
2023/09/03 05:14:25;;;;;;;8.23;7.00;;;;;;;;;;6102975;23;20021;-92
2023/09/03 05:16:51;;;;;;;8.63;7.07;;;;;;;;;;6127564;23;20018;-90
2023/09/03 05:19:17;;;;;;;8.48;7.55;;;;;;;;;;6102743;23;20333;-87
2023/09/03 05:21:43;;;;;;;10.50;7.53;;;;;;;;;;6127005;23;20025;-89
2023/09/03 05:24:10;;;;;;;10.35;7.25;;;;;;;;;;6124942;23;20021;-85
2023/09/03 05:26:36;;;;;;;8.77;7.18;;;;;;;;;;6126744;23;20018;-84
2023/09/03 05:29:02;;;;;;;9.80;7.10;;;;;;;;;;6149691;23;20018;-84
2023/09/03 05:31:30;;;;;;;8.95;6.88;;;;;;;;;;6149634;23;20028;-84
2023/09/03 05:34:02;;;;;;;9.75;7.45;;;;;;;;;;6126292;23;20025;-84
2023/09/03 05:36:28;;;;;;;9.23;6.95;;;;;;;;;;6126673;23;20018;-85
2023/09/03 05:38:54;;;;;;;9.48;7.53;;;;;;;;;;6126820;23;20321;-85
2023/09/03 05:41:20;;;;;;;6.85;6.05;;;;;;;;;;6124460;23;20017;-85
2023/09/03 05:43:46;;;;;;;6.85;6.15;;;;;;;;;;6126685;23;20026;-85
2023/09/03 05:46:12;;;;;;;7.60;6.90;;;;;;;;;;6124514;23;20025;-85
2023/09/03 05:48:38;;;;;;;8.52;6.00;;;;;;;;;;6100436;23;20021;-86
2023/09/03 05:51:05;;;;;;;6.40;5.72;;;;;;;;;;6124839;23;20037;-85
2023/09/03 05:53:32;;;;;;;7.25;6.38;;;;;;;;;;6124578;23;20029;-85
2023/09/03 05:56:12;;;;;;;8.38;7.47;;;12.90;1.00;;;;;;6126060;23;20021;-86
2023/09/03 05:58:38;;;;;;;7.82;7.07;;;;;;;;;;6126041;23;20025;-86
2023/09/03 06:01:09;;;;;;;8.55;6.72;;;12.90;1.00;;;;;;6132772;23;20513;-92
2023/09/03 06:03:35;;;;;;;8.43;7.40;;;;;;;;;;6131472;23;20025;-88
2023/09/03 06:06:05;;;;;;;9.77;7.85;;;13.00;1.00;;;;;;6132817;23;20140;-84
2023/09/03 06:08:31;;;;;;;9.05;7.72;;;;;;;;;;6108890;23;20027;-84
2023/09/03 06:10:57;;;;;;;11.18;9.65;;;;;;;;;;6132957;23;20013;-83
2023/09/03 06:13:24;;;;;;;11.27;8.23;;;;;;;;;;6106587;23;20069;-85
2023/09/03 06:15:50;;;;;;;9.43;8.48;;;;;;;;;;6105402;23;20024;-86
2023/09/03 06:18:17;;;;;;;9.18;8.27;;;;;;;;;;6129388;23;20017;-90
2023/09/03 06:20:43;;;;;;;9.05;8.15;;;;;;;;;;6129554;23;20049;-86
2023/09/03 06:23:09;;;;;;;9.75;8.50;;;;;;;;;;6104917;23;20072;-88
2023/09/03 06:25:36;;;;;;;9.85;8.57;;;;;;;;;;6129334;23;20014;-90
2023/09/03 06:28:03;;;;;;;11.30;8.90;;;;;;;;;;6130013;23;20029;-84
2023/09/03 06:30:29;;;;;;;10.18;9.07;;;;;;;;;;6105025;23;20013;-85
2023/09/03 06:32:55;;;;;;;12.52;9.50;;;;;;;;;;6129949;23;20022;-89
2023/09/03 06:35:21;;;;;;;9.63;8.65;;;;;;;;;;6129797;23;20014;-87
2023/09/03 06:37:47;;;;;;;11.30;7.82;;;;;;;;;;6105679;23;20017;-83
2023/09/03 06:40:14;;;;;;;12.98;8.45;;;;;;;;;;6128962;23;20056;-85
2023/09/03 06:42:41;;;;;;;11.88;8.88;;;13.70;11.50;;;;;;6128949;23;20056;-82
2023/09/03 06:45:08;;;;;;;14.52;8.32;;;;;;;;;;6105229;23;20037;-83
2023/09/03 06:47:34;;;;;;;10.10;8.13;;;;;;;;;;6105244;23;20060;-82
2023/09/03 06:50:00;;;;;;;10.23;8.23;;;;;;;;;;6129118;23;20018;-86
2023/09/03 06:52:26;;;;;;;11.98;8.40;;;;;;;;;;6128920;23;20068;-84
2023/09/03 06:54:52;;;;;;;8.63;7.57;;;;;;;;;;6128638;23;20014;-85
2023/09/03 06:57:20;;;;;;;12.07;9.07;;;;;;;;;;6128928;23;20018;-85
2023/09/03 06:59:46;;;;;;;12.75;8.07;;;;;;;;;;6128749;23;20017;-85
2023/09/03 07:02:12;;;;;;;9.35;8.25;;;14.20;26.90;;;;;;6123460;23;20022;-85
2023/09/03 07:04:38;;;;;;;10.75;7.50;;;;;;;;;;6123452;23;20029;-85
2023/09/03 07:07:04;;;;;;;9.75;7.93;;;14.60;28.00;;;;;;6123570;23;20080;-85
2023/09/03 07:09:32;;;;;;;9.30;7.53;;;14.60;15.30;;;;;;6124386;23;20014;-85
2023/09/03 07:11:59;;;;;;;8.70;7.70;;;;;;;;;;6076114;23;20021;-85
2023/09/03 07:14:25;;;;;;;9.02;7.30;;;;;;;;;;6099521;23;20084;-84
2023/09/03 07:16:52;;;;;;;10.32;7.70;;;;;;;;;;6123365;23;20018;-84
2023/09/03 07:19:18;;;;;;;7.88;6.88;;;;;;;;;;6124325;23;20144;-84
2023/09/03 07:21:44;;;;;;;8.43;7.25;;;;;;;;;;6099836;23;20455;-84
2023/09/03 07:24:11;;;;;;;9.15;7.10;;;;;;;;;;6099467;23;20339;-85
2023/09/03 07:26:37;;;;;;;9.52;7.15;;;;;;;;;;6099780;23;20106;-84
2023/09/03 07:29:03;;;;;;;7.85;7.03;;;;;;;;;;6124015;23;20354;-85
2023/09/03 07:31:29;;;;;;;11.48;6.78;;;;;;;;;;6123884;23;20022;-84
2023/09/03 07:33:58;;;;;;;8.88;7.78;;;;;;;;;;6099971;23;20117;-85
2023/09/03 07:36:24;;;;;;;7.95;7.15;;;;;;;;;;6099934;23;20282;-85
2023/09/03 07:38:50;;;;;;;9.32;6.25;;;;;;;;;;6123927;23;20022;-85
2023/09/03 07:41:15;;;;;;;10.30;6.82;;;15.60;29.60;;;;;;6099964;23;20025;-85
2023/09/03 07:43:42;;;;;;;7.55;6.53;;;;;;;;;;6099609;23;20018;-85
2023/09/03 07:46:08;;;;;;;8.18;6.68;;;;;;;;;;6123985;23;20017;-85
2023/09/03 07:48:34;;;;;;;6.80;6.07;;;;;;;;;;6123774;23;20109;-85
2023/09/03 07:51:00;;;;;;;6.75;5.88;;;;;;;;;;6124199;23;20015;-85
2023/09/03 07:53:26;;;;;;;8.52;6.40;;;;;;;;;;6123600;23;20029;-85
2023/09/03 07:55:52;;;;;;;7.63;6.45;;;;;;;;;;6124010;23;20014;-85
2023/09/03 07:58:18;;;;;;;9.15;5.95;;;;;;;;;;6124343;23;20033;-85
2023/09/03 08:00:46;;;;;;;7.47;6.05;;;;;;;;;;6099464;23;20101;-85
2023/09/03 08:03:11;;;;;;;5.95;5.38;;;16.40;27.70;;;;;;6076909;23;20022;-85
2023/09/03 08:05:37;;;;;;;6.45;5.50;;;;;;;;;;6076526;23;20022;-85
2023/09/03 08:08:03;;;;;;;5.30;4.07;;;16.70;26.80;;;;;;6053419;23;20097;-85
2023/09/03 08:10:29;;;;;;;8.88;4.60;;;;;;;;;;6078483;23;20054;-85
2023/09/03 08:12:56;;;;;;;5.40;4.03;;;;;;;;;;6077914;23;20030;-84
2023/09/03 08:15:22;;;;;;;4.65;3.40;;;;;;;;;;6078078;23;20025;-85
2023/09/03 08:17:48;;;;;;;4.55;3.53;;;;;;;;;;6053186;23;20447;-85
2023/09/03 08:20:14;;;;;;;4.57;3.67;;;;;;;;;;6100801;23;20025;-85
2023/09/03 08:22:40;;;;;;;4.53;3.38;;;;;;;;;;6076711;23;20018;-85
2023/09/03 08:25:06;;;;;;;18.35;5.40;;;17.20;19.10;;;;;;6076489;23;20072;-85
2023/09/03 08:27:32;;;;;;;8.90;4.63;;;;;;;;;;6076703;23;20021;-85
2023/09/03 08:29:58;;;;;;;4.63;4.20;;;17.30;17.00;;;;;;6076827;23;20025;-85
2023/09/03 08:32:24;;;;;;;6.88;4.00;;;;;;;;;;6052354;23;20026;-85
2023/09/03 08:34:51;;;;;;;4.35;3.95;;;;;;;;;;6076905;23;20339;-85
2023/09/03 08:37:17;;;;;;;5.85;4.65;;;;;;;;;;6052983;23;20482;-85
2023/09/03 08:39:47;;;;;;;6.78;4.22;;;;;;;;;;6053173;23;20135;-85
2023/09/03 08:42:14;;;;;;;8.10;4.60;;;;;;;;;;6076499;23;20021;-85
2023/09/03 08:44:48;;;;;;;4.60;4.03;;;17.70;9.70;;;;;;6076740;23;20056;-85
2023/09/03 08:47:17;;;;;;;5.43;4.32;;;17.80;1.00;;;;;;6076811;23;20092;-85
2023/09/03 08:49:44;;;;;;;4.60;4.13;;;17.60;1.00;;;;;;6100514;23;20025;-85
2023/09/03 08:52:11;;;;;;;5.95;4.00;;;;;;;;;;6076203;23;20049;-85
2023/09/03 08:54:38;;;;;;;5.40;3.38;;;17.80;1.00;;;;;;6076248;23;20014;-86
2023/09/03 08:57:05;;;;;;;3.83;3.42;;;18.00;1.00;;;;;;6078422;23;20473;-85
2023/09/03 08:59:32;;;;;;;5.05;3.38;;;;;;;;;;6102029;23;20014;-87
2023/09/03 09:01:58;;;;;;;4.00;3.50;;;;;;;;;;6078217;23;20022;-85
2023/09/03 09:04:28;;;;;;;4.22;3.58;;;18.10;1.00;;;;;;6078990;23;20140;-86
2023/09/03 09:06:54;;;;;;;5.10;3.38;;;;;;;;;;6102343;23;20025;-86
2023/09/03 09:09:21;;;;;;;3.95;3.53;;;;;;;;;;6078523;23;20022;-85
2023/09/03 09:11:54;;;;;;;4.72;3.40;;;18.10;1.00;;;;;;6056630;23;20022;-86
2023/09/03 09:14:31;;;;;;;4.00;3.28;;;18.30;1.00;;;;;;6102241;23;20021;-84
2023/09/03 09:16:57;;;;;;;6.35;2.72;;;;;;;;;;6080450;23;20480;-92
2023/09/03 09:19:23;;;;;;;4.95;3.17;;;;;;;;;;6081617;23;20072;-84
2023/09/03 09:21:49;;;;;;;5.20;2.90;;;;;;;;;;6077254;23;20014;-85
2023/09/03 09:24:15;;;;;;;7.15;3.47;;;18.40;1.00;;;;;;6076514;23;20100;-84
2023/09/03 09:26:41;;;;;;;3.70;3.35;;;18.10;1.00;;;;;;6052995;23;20101;-84
2023/09/03 09:29:07;;;;;;;3.17;2.88;;;;;;;;;;6076749;23;20026;-86
2023/09/03 09:31:34;;;;;;;4.50;3.17;;;18.30;1.00;;;;;;6076329;23;20024;-85
2023/09/03 09:34:14;;;;;;;7.00;4.70;;;18.40;1.00;;;;;;6075907;23;20073;-86
2023/09/03 09:36:54;;;;;;;4.15;3.25;;;18.60;1.00;;;;;;6055102;23;20049;-86
2023/09/03 09:39:20;;;;;;;3.78;3.28;;;;;;;;;;6076320;23;20459;-85
2023/09/03 09:41:47;;;;;;;6.03;2.95;;;;;;;;;;6100808;23;20040;-87
2023/09/03 09:44:13;;;;;;;3.65;2.22;;;;;;;;;;6100401;23;20014;-85
2023/09/03 09:46:39;;;;;;;2.22;1.80;;;;;;;;;;6126632;23;20025;-85
2023/09/03 09:49:07;;;;;;;3.45;1.83;;;;;;;;;;6100375;23;20522;-87
2023/09/03 09:51:33;;;;;;;6.38;2.50;;;;;;;;;;6076289;23;20391;-85
2023/09/03 09:54:03;;;;;;;3.58;2.42;;;18.90;1.00;;;;;;6076212;23;20154;-85
2023/09/03 09:56:32;;;;;;;2.80;2.17;;;19.00;1.00;;;;;;6077067;23;20017;-85
2023/09/03 09:58:58;;;;;;;5.93;2.60;;;;;;;;;;6099927;23;20014;-85
2023/09/03 10:01:27;;;;;;;6.80;2.13;;;19.10;1.00;;;;;;6132919;23;20021;-87
2023/09/03 10:03:53;;;;;;;3.42;2.75;;;19.10;1.00;;;;;;6129482;23;20100;-85
2023/09/03 10:06:21;;;;;;;3.65;2.13;;;19.40;1.00;;;;;;6105392;23;20023;-85
2023/09/03 10:08:49;;;;;;;3.78;2.35;;;19.50;1.00;;;;;;6155904;23;20013;-85
2023/09/03 10:11:15;;;;;;;3.10;2.70;;;;;;;;;;6156142;23;20025;-86
2023/09/03 10:13:42;;;;;;;3.75;2.05;;;;;;;;;;6155943;23;20010;-86
2023/09/03 10:16:10;;;;;;;2.90;2.40;;;19.60;1.00;;;;;;6105741;23;20028;-86
2023/09/03 10:18:45;;;;;;;3.70;2.47;;;19.60;1.00;;;;;;6156993;23;20009;-86
2023/09/03 10:21:12;;;;;;;2.25;2.08;;;19.80;1.00;;;;;;6156733;23;20021;-86
2023/09/03 10:23:48;;;;;;;2.40;2.20;;;19.80;1.00;;;;;;6129580;23;20017;-88
2023/09/03 10:26:37;;;;;;;3.08;2.00;;;19.90;1.00;;;;;;6105517;23;20083;-85
2023/09/03 10:29:06;;;;;;;1.85;1.75;;;19.80;1.00;;;;;;6156433;23;20013;-91
2023/09/03 10:31:35;;;;;;;3.78;2.17;;;20.00;1.00;;;;;;6156657;23;20024;-89
2023/09/03 10:34:01;;;;;;;5.22;2.67;;;;;;;;;;6130890;23;20096;-85
2023/09/03 10:36:27;;;;;;;3.83;2.00;;;20.00;1.00;;;;;;6106047;23;20057;-85
2023/09/03 10:38:53;;;;;;;3.40;2.50;;;;;;;;;;6081798;23;20018;-87
2023/09/03 10:41:23;;;;;;;4.10;2.42;;;20.20;1.00;;;;;;6129368;23;20021;-85
2023/09/03 10:43:51;;;;;;;3.53;2.17;;;20.40;1.00;;;;;;6129559;23;20021;-88
2023/09/03 10:46:17;;;;;;;5.65;2.95;;;;;;;;;;6080648;23;20018;-87
2023/09/03 10:48:57;;;;;;;4.15;2.13;;;20.40;1.00;;;;;;6129629;23;20382;-89
2023/09/03 10:51:41;;;;;;;3.65;2.15;;;20.40;1.00;;;;;;6130167;23;20025;-87
2023/09/03 10:54:19;;;;;;;3.00;2.13;;;20.40;1.00;;;;;;6105148;23;20017;-88
2023/09/03 10:57:18;;;;;;;4.10;2.13;;;20.50;1.00;;;;;;6155710;23;20024;-89
2023/09/03 11:00:05;;;;;;;2.88;2.20;;;20.40;1.00;;;;;;6066502;23;20025;-89
2023/09/03 11:02:31;;;;;;;3.17;1.65;;;;;;;;;;6155302;23;20490;-86
2023/09/03 11:05:21;;;;;;;2.60;2.00;;;20.80;1.00;;;;;;6129300;23;20022;-89
2023/09/03 11:08:07;;;;;;;2.03;1.90;;;20.60;1.00;;;;;;6105170;23;20025;-89
2023/09/03 11:10:36;;;;;;;5.10;2.50;;;20.80;1.00;;;;;;6065523;23;20069;-89
2023/09/03 11:13:07;;;;;;;2.15;2.00;;;20.70;1.00;;;;;;6105478;23;20024;-88
2023/09/03 11:15:36;;;;;;;7.75;2.53;;;;;;;;;;6130868;23;20017;-89
2023/09/03 11:18:02;;;;;;;3.55;1.95;;;;;;;;;;6104824;23;20018;-87
2023/09/03 11:20:35;;;;;;;3.85;1.58;;;20.80;1.00;;;;;;6129243;23;20029;-88
2023/09/03 11:23:04;;;;;;;5.20;2.07;;;20.80;1.00;;;;;;6105931;23;20022;-88
2023/09/03 11:25:35;;;;;;;2.55;2.17;;;20.80;1.00;;;;;;6104557;23;20075;-88
2023/09/03 11:28:05;;;;;;;3.17;2.78;;;21.10;1.00;;;;;;6081229;23;20024;-90
2023/09/03 11:30:32;;;;;;;2.58;2.10;;;;;;;;;;6104602;23;20060;-89
2023/09/03 11:32:57;;;;;;;3.35;1.90;;;21.40;1.00;;;;;;6128710;23;20019;-88
2023/09/03 11:35:27;;;;;;;1.90;1.50;;;21.30;1.00;;;;;;6104812;23;20486;-89
2023/09/03 11:37:56;;;;;;;2.38;2.08;;;21.40;1.00;;;;;;6080744;23;20052;-88
2023/09/03 11:40:26;;;;;;;2.20;1.98;;;;;;;;;;6107128;23;20152;-89
2023/09/03 11:42:59;;;;;;;3.90;2.13;;;21.40;1.00;;;;;;6131213;23;20009;-92
2023/09/03 11:45:32;;;;;;;3.40;1.47;;;21.30;1.00;;;;;;6133835;23;20057;-93
2023/09/03 11:47:58;;;;;;;5.38;2.10;;;21.30;1.00;;;;;;6132901;23;20021;-87
2023/09/03 11:50:26;;;;;;;2.85;1.60;;;21.70;1.00;;;;;;6107955;23;20324;-88
2023/09/03 11:52:58;;;;;;;11.68;2.08;;;21.70;1.00;;;;;;6157437;23;20032;-85
2023/09/03 11:55:28;;;;;;;1.60;1.50;;;21.50;1.00;;;;;;6106784;23;20288;-87
2023/09/03 11:58:01;;;;;;;2.80;1.60;;;21.40;1.00;;;;;;6131751;23;20018;-88
2023/09/03 12:00:31;;;;;;;12.20;1.77;;;21.50;1.00;;;;;;6133429;23;20044;-85
2023/09/03 12:02:58;;;;;;;2.03;1.80;;;21.60;1.00;;;;;;6103447;23;20018;-86
2023/09/03 12:05:38;;;;;;;2.50;1.95;;;22.00;1.00;;;;;;6079600;23;20061;-91
2023/09/03 12:08:05;;;;;;;6.07;2.13;;;22.10;1.00;;;;;;6126310;23;20025;-91
2023/09/03 12:10:37;;;;;;;2.03;1.60;;;22.00;1.00;;;;;;6127016;23;20018;-90
2023/09/03 12:13:06;;;;;;;3.65;2.17;;;22.20;1.00;;;;;;6102392;23;20022;-89
2023/09/03 12:15:31;;;;;;;2.05;1.20;;;22.20;1.00;;;;;;6102449;23;20455;-89
2023/09/03 12:18:08;;;;;;;1.63;1.48;;;22.10;1.00;;;;;;6053894;23;20025;-88
2023/09/03 12:20:51;;;;;;;2.17;1.25;;;22.00;1.00;;;;;;6101131;23;20022;-88
2023/09/03 12:26:28;;;;;;;1.77;1.67;;;21.90;1.00;;;;;;6095474;23;20018;-89
2023/09/03 12:29:21;;;;;;;1.40;1.30;;;22.20;1.00;;;;;;6125662;23;20026;-89
2023/09/03 12:31:53;;;;;;;2.28;1.58;;;22.10;1.00;;;;;;6122586;23;20099;-87
2023/09/03 12:34:35;;;;;;;2.88;1.30;;;22.40;1.00;;;;;;6166434;23;20028;-88
2023/09/03 12:37:02;;;;;;;1.45;1.23;;;22.40;1.00;;;;;;6215995;23;20389;-87
2023/09/03 12:39:29;;;;;;;1.65;0.93;;;22.30;1.00;;;;;;6215529;23;20012;-89
2023/09/03 12:41:55;;;;;;;1.60;1.50;;;22.30;1.00;;;;;;6190995;23;20299;-87
2023/09/03 12:44:21;;;;;;;3.95;1.52;;;22.20;1.00;;;;;;6190662;23;20094;-87
2023/09/03 12:46:48;;;;;;;4.45;1.20;;;22.40;1.00;;;;;;6192863;23;20023;-92
2023/09/03 12:49:17;;;;;;;3.78;1.55;;;;;;;;;;6167759;23;20016;-93
2023/09/03 12:51:42;;;;;;;3.03;1.50;;;22.60;1.00;;;;;;6192741;23;20009;-91
2023/09/03 12:54:09;;;;;;;3.47;1.30;;;22.90;1.00;;;;;;6162305;23;20350;-90
2023/09/03 12:56:35;;;;;;;2.33;1.20;;;22.90;1.00;;;;;;6161946;23;20017;-93
2023/09/03 12:59:07;;;;;;;1.33;1.00;;;23.00;1.00;;;;;;6161940;23;20375;-89
2023/09/03 13:01:38;;;;;;;5.47;1.70;;;23.90;1.00;;;;;;6161922;23;20014;-92
2023/09/03 13:04:07;;;;;;;1.40;1.10;;;22.90;1.00;;;;;;6137873;23;20016;-90
2023/09/03 13:06:33;;;;;;;1.48;1.20;;;23.00;1.00;;;;;;6161942;23;20025;-93
2023/09/03 13:08:59;;;;;;;1.70;1.60;;;;;;;;;;6161797;23;20067;-91
2023/09/03 13:11:25;;;;;;;4.03;1.10;;;22.70;1.00;;;;;;6186218;23;20056;-92
2023/09/03 13:13:51;;;;;;;3.45;1.00;;;22.90;1.00;;;;;;6161936;23;20017;-92
2023/09/03 13:16:20;;;;;;;7.43;1.40;;;23.00;1.00;;;;;;6186674;23;20087;-92
2023/09/03 13:18:48;;;;;;;1.70;1.60;;;22.90;1.00;;;;;;6186284;23;20016;-92
2023/09/03 13:21:16;;;;;;;2.58;1.30;;;22.90;1.00;;;;;;6160414;23;20016;-87
2023/09/03 13:23:42;;;;;;;2.70;1.42;;;22.60;1.00;;;;;;6185407;23;20108;-88
2023/09/03 13:26:08;;;;;;;1.70;1.48;;;22.80;1.00;;;;;;6160417;23;20044;-86
2023/09/03 13:28:34;;;;;;;1.92;1.10;;;;;;;;;;6187007;23;20100;-86
2023/09/03 13:31:04;;;;;;;1.67;1.20;;;22.50;1.00;;;;;;6185448;23;20413;-86
2023/09/03 13:33:30;;;;;;;1.90;1.35;;;20.10;1.00;;;;;;6159567;23;20075;-87
2023/09/03 13:35:57;;;;;;;1.23;1.10;;;;;;;;;;6184858;23;20021;-89
2023/09/03 13:38:24;;;;;;;1.00;1.00;;;22.50;1.00;;;;;;6185267;23;20443;-88
2023/09/03 13:40:51;;;;;;;1.83;0.85;;;22.60;1.00;;;;;;6185196;23;20312;-90
2023/09/03 13:43:18;;;;;;;2.08;1.30;;;22.80;1.00;;;;;;6160241;23;20348;-87
2023/09/03 13:45:53;;;;;;;1.67;1.27;;;22.20;1.00;;;;;;6159747;23;20024;-88
2023/09/03 13:48:19;;;;;;;3.63;1.17;;;22.50;1.00;;;;;;6185551;23;20104;-87
2023/09/03 13:50:46;;;;;;;4.32;1.33;;;22.50;1.00;;;;;;6159636;23;20013;-85
2023/09/03 13:53:11;;;;;;;2.60;1.17;;;22.30;1.00;;;;;;6159254;23;20017;-88
2023/09/03 13:55:37;;;;;;;4.05;1.40;;;22.10;1.00;;;;;;6159445;23;20088;-87
2023/09/03 13:58:06;;;;;;;1.92;1.10;;;22.60;1.00;;;;;;6185647;23;20017;-89
2023/09/03 14:00:32;;;;;;;7.15;1.45;;;22.60;1.00;;;;;;6183871;23;20476;-88
2023/09/03 14:02:58;;;;;;;2.45;1.13;;;22.60;1.00;;;;;;6185055;23;20017;-88
2023/09/03 14:05:24;;;;;;;1.27;1.10;;;23.10;1.00;;;;;;6183900;23;20021;-86
2023/09/03 14:07:50;;;;;;;2.30;1.30;;;22.80;1.00;;;;;;6184029;23;20025;-86
2023/09/03 14:10:16;;;;;;;1.85;1.45;;;22.60;1.00;;;;;;6185675;23;20017;-88